sensor_id;sensor_type;location;lat;lon;timestamp;pressure;altitude;pressure_sealevel;temperature;humidity
41062;BME280;26812;42.662;23.352;2022-09-09T00:00:20;95145.19;;;19.69;64.44
41062;BME280;26812;42.662;23.352;2022-09-09T00:03:19;95148.31;;;19.44;65.51
41062;BME280;26812;42.662;23.352;2022-09-09T00:05:55;95136.63;;;19.47;65.71
41062;BME280;26812;42.662;23.352;2022-09-09T00:08:41;95139.78;;;19.49;65.86
41062;BME280;26812;42.662;23.352;2022-09-09T00:11:12;95130.97;;;19.33;65.76
41062;BME280;26812;42.662;23.352;2022-09-09T00:13:46;95144.88;;;19.51;65.95
41062;BME280;26812;42.662;23.352;2022-09-09T00:16:20;95133.47;;;19.45;66.27
41062;BME280;26812;42.662;23.352;2022-09-09T00:19:03;95144.47;;;19.49;65.84
41062;BME280;26812;42.662;23.352;2022-09-09T00:21:37;95146.25;;;19.38;66.56
41062;BME280;26812;42.662;23.352;2022-09-09T00:24:30;95131.94;;;19.48;66.32
41062;BME280;26812;42.662;23.352;2022-09-09T00:27:19;95126.19;;;19.53;66.24
41062;BME280;26812;42.662;23.352;2022-09-09T00:29:57;95119.81;;;19.45;65.95
41062;BME280;26812;42.662;23.352;2022-09-09T00:32:29;95108.97;;;19.52;65.46
41062;BME280;26812;42.662;23.352;2022-09-09T00:34:59;95117.25;;;19.56;65.90
41062;BME280;26812;42.662;23.352;2022-09-09T00:37:28;95106.25;;;19.52;65.91
41062;BME280;26812;42.662;23.352;2022-09-09T00:39:59;95107.97;;;19.61;65.84
41062;BME280;26812;42.662;23.352;2022-09-09T00:42:40;95109.47;;;19.58;65.77
41062;BME280;26812;42.662;23.352;2022-09-09T00:48:06;95083.88;;;19.17;66.80
41062;BME280;26812;42.662;23.352;2022-09-09T00:50:44;95101.00;;;19.14;67.26
41062;BME280;26812;42.662;23.352;2022-09-09T00:53:24;95107.00;;;19.23;67.19
41062;BME280;26812;42.662;23.352;2022-09-09T00:56:14;95091.56;;;19.08;67.59
41062;BME280;26812;42.662;23.352;2022-09-09T01:01:26;95097.44;;;19.36;66.54
41062;BME280;26812;42.662;23.352;2022-09-09T01:03:55;95105.75;;;19.43;66.04
41062;BME280;26812;42.662;23.352;2022-09-09T01:09:19;95097.41;;;19.33;66.45
41062;BME280;26812;42.662;23.352;2022-09-09T01:17:01;95097.22;;;19.22;66.50
41062;BME280;26812;42.662;23.352;2022-09-09T01:19:45;95103.63;;;19.07;67.05
41062;BME280;26812;42.662;23.352;2022-09-09T01:25:11;95111.25;;;18.98;67.80
41062;BME280;26812;42.662;23.352;2022-09-09T01:27:44;95109.88;;;19.07;67.57
41062;BME280;26812;42.662;23.352;2022-09-09T01:30:14;95104.06;;;19.09;67.57
41062;BME280;26812;42.662;23.352;2022-09-09T01:32:45;95102.91;;;19.10;67.64
41062;BME280;26812;42.662;23.352;2022-09-09T01:35:15;95103.63;;;19.07;67.39
41062;BME280;26812;42.662;23.352;2022-09-09T01:37:45;95105.16;;;19.04;67.54
41062;BME280;26812;42.662;23.352;2022-09-09T01:40:11;95112.78;;;18.95;67.77
41062;BME280;26812;42.662;23.352;2022-09-09T01:42:37;95118.00;;;19.04;67.59
41062;BME280;26812;42.662;23.352;2022-09-09T01:45:04;95118.81;;;19.04;67.46
41062;BME280;26812;42.662;23.352;2022-09-09T01:47:29;95112.19;;;19.05;67.47
41062;BME280;26812;42.662;23.352;2022-09-09T01:49:54;95110.78;;;18.92;67.98
41062;BME280;26812;42.662;23.352;2022-09-09T01:52:27;95112.78;;;18.95;67.92
41062;BME280;26812;42.662;23.352;2022-09-09T01:54:52;95121.72;;;18.92;67.66
41062;BME280;26812;42.662;23.352;2022-09-09T01:57:25;95127.34;;;18.80;68.44
41062;BME280;26812;42.662;23.352;2022-09-09T02:00:11;95125.59;;;18.91;68.11
41062;BME280;26812;42.662;23.352;2022-09-09T02:05:37;95123.22;;;18.89;68.32
41062;BME280;26812;42.662;23.352;2022-09-09T02:08:10;95111.56;;;18.92;68.10
41062;BME280;26812;42.662;23.352;2022-09-09T02:10:46;95115.88;;;18.93;68.02
41062;BME280;26812;42.662;23.352;2022-09-09T02:13:14;95114.72;;;18.95;68.06
41062;BME280;26812;42.662;23.352;2022-09-09T02:15:50;95110.84;;;18.96;67.89
41062;BME280;26812;42.662;23.352;2022-09-09T02:18:27;95099.88;;;18.92;67.64
41062;BME280;26812;42.662;23.352;2022-09-09T02:20:56;95097.19;;;18.96;67.53
41062;BME280;26812;42.662;23.352;2022-09-09T02:23:23;95094.50;;;18.73;68.54
41062;BME280;26812;42.662;23.352;2022-09-09T02:25:48;95074.69;;;18.56;68.74
41062;BME280;26812;42.662;23.352;2022-09-09T02:28:18;95104.19;;;18.70;68.45
41062;BME280;26812;42.662;23.352;2022-09-09T02:30:47;95109.06;;;18.61;68.95
41062;BME280;26812;42.662;23.352;2022-09-09T02:33:24;95107.56;;;18.64;68.88
41062;BME280;26812;42.662;23.352;2022-09-09T02:35:52;95111.22;;;18.71;68.64
41062;BME280;26812;42.662;23.352;2022-09-09T02:38:22;95112.81;;;18.72;68.58
41062;BME280;26812;42.662;23.352;2022-09-09T02:40:51;95115.13;;;18.51;68.79
41062;BME280;26812;42.662;23.352;2022-09-09T02:43:17;95112.47;;;18.35;69.57
41062;BME280;26812;42.662;23.352;2022-09-09T02:45:53;95109.69;;;18.31;69.79
41062;BME280;26812;42.662;23.352;2022-09-09T02:48:34;95118.38;;;18.37;69.99
41062;BME280;26812;42.662;23.352;2022-09-09T02:51:16;95123.47;;;18.39;69.59
41062;BME280;26812;42.662;23.352;2022-09-09T02:54:13;95129.78;;;18.43;69.59
41062;BME280;26812;42.662;23.352;2022-09-09T02:56:40;95130.22;;;18.45;69.51
41062;BME280;26812;42.662;23.352;2022-09-09T02:59:07;95107.81;;;18.36;69.31
41062;BME280;26812;42.662;23.352;2022-09-09T03:01:33;95080.50;;;18.13;69.34
41062;BME280;26812;42.662;23.352;2022-09-09T03:03:58;95107.06;;;17.96;70.73
41062;BME280;26812;42.662;23.352;2022-09-09T03:06:23;95115.78;;;18.06;70.86
41062;BME280;26812;42.662;23.352;2022-09-09T03:08:49;95121.06;;;18.14;70.76
41062;BME280;26812;42.662;23.352;2022-09-09T03:11:16;95125.78;;;18.17;70.39
41062;BME280;26812;42.662;23.352;2022-09-09T03:13:41;95114.81;;;18.14;70.39
41062;BME280;26812;42.662;23.352;2022-09-09T03:16:06;95118.88;;;18.23;70.47
41062;BME280;26812;42.662;23.352;2022-09-09T03:18:32;95131.50;;;18.31;70.07
41062;BME280;26812;42.662;23.352;2022-09-09T03:20:57;95115.38;;;18.23;69.96
41062;BME280;26812;42.662;23.352;2022-09-09T03:23:24;95127.00;;;18.20;70.21
41062;BME280;26812;42.662;23.352;2022-09-09T03:25:50;95116.94;;;18.24;70.00
41062;BME280;26812;42.662;23.352;2022-09-09T03:28:16;95115.13;;;18.31;69.55
41062;BME280;26812;42.662;23.352;2022-09-09T03:30:42;95115.84;;;18.28;69.26
41062;BME280;26812;42.662;23.352;2022-09-09T03:33:07;95125.13;;;18.24;69.96
41062;BME280;26812;42.662;23.352;2022-09-09T03:35:32;95131.25;;;18.17;70.29
41062;BME280;26812;42.662;23.352;2022-09-09T03:37:58;95114.81;;;18.14;69.98
41062;BME280;26812;42.662;23.352;2022-09-09T03:40:23;95123.53;;;18.23;70.21
41062;BME280;26812;42.662;23.352;2022-09-09T03:42:49;95110.28;;;18.21;70.07
41062;BME280;26812;42.662;23.352;2022-09-09T03:45:14;95117.44;;;18.29;70.18
41062;BME280;26812;42.662;23.352;2022-09-09T03:47:40;95081.16;;;18.06;70.26
41062;BME280;26812;42.662;23.352;2022-09-09T03:50:06;95100.53;;;18.20;70.08
41062;BME280;26812;42.662;23.352;2022-09-09T03:52:38;95121.97;;;18.41;69.78
41062;BME280;26812;42.662;23.352;2022-09-09T03:55:04;95126.25;;;18.42;69.73
41062;BME280;26812;42.662;23.352;2022-09-09T03:57:31;95119.00;;;18.30;69.67
41062;BME280;26812;42.662;23.352;2022-09-09T03:59:57;95121.97;;;18.22;69.78
41062;BME280;26812;42.662;23.352;2022-09-09T04:02:23;95120.94;;;18.30;69.95
41062;BME280;26812;42.662;23.352;2022-09-09T04:04:48;95142.34;;;18.28;70.05
41062;BME280;26812;42.662;23.352;2022-09-09T04:07:14;95135.75;;;18.29;70.09
41062;BME280;26812;42.662;23.352;2022-09-09T04:09:39;95138.56;;;18.13;70.55
41062;BME280;26812;42.662;23.352;2022-09-09T04:12:05;95132.53;;;18.23;70.53
41062;BME280;26812;42.662;23.352;2022-09-09T04:14:31;95139.56;;;18.24;70.20
41062;BME280;26812;42.662;23.352;2022-09-09T04:16:57;95120.97;;;18.11;70.74
41062;BME280;26812;42.662;23.352;2022-09-09T04:19:24;95132.22;;;18.28;70.57
41062;BME280;26812;42.662;23.352;2022-09-09T04:21:50;95117.72;;;18.24;70.46
41062;BME280;26812;42.662;23.352;2022-09-09T04:24:23;95125.72;;;18.14;70.91
41062;BME280;26812;42.662;23.352;2022-09-09T04:26:49;95105.00;;;18.09;70.65
41062;BME280;26812;42.662;23.352;2022-09-09T04:29:15;95107.13;;;18.00;70.57
41062;BME280;26812;42.662;23.352;2022-09-09T04:31:46;95135.00;;;18.32;70.48
41062;BME280;26812;42.662;23.352;2022-09-09T04:34:12;95127.25;;;18.34;70.23
41062;BME280;26812;42.662;23.352;2022-09-09T04:36:37;95120.09;;;18.26;70.03
41062;BME280;26812;42.662;23.352;2022-09-09T04:39:04;95137.25;;;18.26;69.65
41062;BME280;26812;42.662;23.352;2022-09-09T04:41:29;95137.53;;;18.21;70.21
41062;BME280;26812;42.662;23.352;2022-09-09T04:43:56;95123.41;;;18.16;70.27
41062;BME280;26812;42.662;23.352;2022-09-09T04:46:22;95118.69;;;18.13;70.18
41062;BME280;26812;42.662;23.352;2022-09-09T04:48:50;95149.19;;;18.18;70.62
41062;BME280;26812;42.662;23.352;2022-09-09T04:51:17;95122.75;;;18.03;70.98
41062;BME280;26812;42.662;23.352;2022-09-09T04:53:42;95126.38;;;18.07;69.96
41062;BME280;26812;42.662;23.352;2022-09-09T04:56:10;95118.75;;;17.97;70.29
41062;BME280;26812;42.662;23.352;2022-09-09T04:58:37;95104.91;;;17.86;70.68
41062;BME280;26812;42.662;23.352;2022-09-09T05:01:07;95114.69;;;18.07;70.74
41062;BME280;26812;42.662;23.352;2022-09-09T05:03:33;95115.38;;;18.23;71.02
41062;BME280;26812;42.662;23.352;2022-09-09T05:06:06;95127.50;;;18.25;71.12
41062;BME280;26812;42.662;23.352;2022-09-09T05:08:31;95115.34;;;18.42;70.79
41062;BME280;26812;42.662;23.352;2022-09-09T05:10:57;95092.81;;;18.45;70.22
41062;BME280;26812;42.662;23.352;2022-09-09T05:13:24;95094.38;;;18.46;69.27
41062;BME280;26812;42.662;23.352;2022-09-09T05:15:53;95107.06;;;18.58;68.74
41062;BME280;26812;42.662;23.352;2022-09-09T05:18:19;95107.94;;;18.62;68.81
41062;BME280;26812;42.662;23.352;2022-09-09T05:20:45;95116.81;;;18.78;68.63
41062;BME280;26812;42.662;23.352;2022-09-09T05:23:10;95120.91;;;18.91;68.05
41062;BME280;26812;42.662;23.352;2022-09-09T05:25:40;95108.66;;;19.05;68.33
41062;BME280;26812;42.662;23.352;2022-09-09T05:28:06;95106.09;;;19.15;67.48
41062;BME280;26812;42.662;23.352;2022-09-09T05:30:39;95096.97;;;19.04;66.09
41062;BME280;26812;42.662;23.352;2022-09-09T05:33:05;95104.31;;;19.27;65.48
41062;BME280;26812;42.662;23.352;2022-09-09T05:35:31;95112.00;;;19.44;64.87
41062;BME280;26812;42.662;23.352;2022-09-09T05:37:59;95102.19;;;19.66;64.51
41062;BME280;26812;42.662;23.352;2022-09-09T05:40:25;95105.75;;;19.70;62.94
41062;BME280;26812;42.662;23.352;2022-09-09T05:42:50;95107.34;;;19.71;64.49
41062;BME280;26812;42.662;23.352;2022-09-09T05:45:16;95104.34;;;19.83;63.12
41062;BME280;26812;42.662;23.352;2022-09-09T05:47:41;95096.56;;;19.85;62.54
41062;BME280;26812;42.662;23.352;2022-09-09T05:50:07;95118.38;;;20.11;62.41
41062;BME280;26812;42.662;23.352;2022-09-09T05:52:32;95126.00;;;20.25;60.21
41062;BME280;26812;42.662;23.352;2022-09-09T05:54:58;95124.22;;;20.40;59.69
41062;BME280;26812;42.662;23.352;2022-09-09T05:57:24;95094.56;;;20.45;59.55
41062;BME280;26812;42.662;23.352;2022-09-09T05:59:50;95104.09;;;20.59;58.83
41062;BME280;26812;42.662;23.352;2022-09-09T06:02:15;95111.69;;;20.76;57.89
41062;BME280;26812;42.662;23.352;2022-09-09T06:04:41;95119.63;;;20.88;57.47
41062;BME280;26812;42.662;23.352;2022-09-09T06:07:07;95125.16;;;20.95;57.23
41062;BME280;26812;42.662;23.352;2022-09-09T06:09:32;95133.44;;;21.02;57.83
41062;BME280;26812;42.662;23.352;2022-09-09T06:12:04;95134.66;;;21.08;57.08
41062;BME280;26812;42.662;23.352;2022-09-09T06:14:29;95139.50;;;21.22;57.13
41062;BME280;26812;42.662;23.352;2022-09-09T06:16:55;95131.34;;;21.29;57.34
41062;BME280;26812;42.662;23.352;2022-09-09T06:19:21;95129.81;;;21.35;56.82
41062;BME280;26812;42.662;23.352;2022-09-09T06:21:49;95127.09;;;21.35;55.67
41062;BME280;26812;42.662;23.352;2022-09-09T06:24:15;95137.38;;;21.49;55.72
41062;BME280;26812;42.662;23.352;2022-09-09T06:26:42;95126.47;;;21.60;54.32
41062;BME280;26812;42.662;23.352;2022-09-09T06:29:09;95142.97;;;21.67;53.99
41062;BME280;26812;42.662;23.352;2022-09-09T06:31:35;95138.66;;;21.66;53.82
41062;BME280;26812;42.662;23.352;2022-09-09T06:34:04;95133.59;;;21.72;54.86
41062;BME280;26812;42.662;23.352;2022-09-09T06:36:34;95128.19;;;21.79;54.06
41062;BME280;26812;42.662;23.352;2022-09-09T06:39:00;95102.31;;;21.80;53.69
41062;BME280;26812;42.662;23.352;2022-09-09T06:41:29;95119.25;;;22.03;53.32
41062;BME280;26812;42.662;23.352;2022-09-09T06:43:55;95117.41;;;22.11;53.65
41062;BME280;26812;42.662;23.352;2022-09-09T06:46:28;95099.34;;;22.06;52.11
41062;BME280;26812;42.662;23.352;2022-09-09T06:48:55;95123.72;;;22.25;51.52
41062;BME280;26812;42.662;23.352;2022-09-09T06:51:22;95127.69;;;22.39;51.72
41062;BME280;26812;42.662;23.352;2022-09-09T06:53:55;95133.53;;;22.26;52.05
41062;BME280;26812;42.662;23.352;2022-09-09T06:56:24;95129.59;;;22.27;52.32
41062;BME280;26812;42.662;23.352;2022-09-09T06:58:51;95130.44;;;22.42;51.30
41062;BME280;26812;42.662;23.352;2022-09-09T07:01:22;95140.28;;;22.54;50.71
41062;BME280;26812;42.662;23.352;2022-09-09T07:03:50;95142.31;;;22.68;50.23
41062;BME280;26812;42.662;23.352;2022-09-09T07:06:28;95140.38;;;22.86;49.25
41062;BME280;26812;42.662;23.352;2022-09-09T07:08:56;95145.94;;;23.00;50.32
41062;BME280;26812;42.662;23.352;2022-09-09T07:11:25;95145.13;;;23.17;50.23
41062;BME280;26812;42.662;23.352;2022-09-09T07:13:52;95123.94;;;23.11;50.32
41062;BME280;26812;42.662;23.352;2022-09-09T07:16:19;95133.38;;;23.10;50.20
41062;BME280;26812;42.662;23.352;2022-09-09T07:18:45;95126.28;;;23.12;50.04
41062;BME280;26812;42.662;23.352;2022-09-09T07:21:12;95127.88;;;23.17;49.73
41062;BME280;26812;42.662;23.352;2022-09-09T07:23:39;95131.38;;;23.49;49.26
41062;BME280;26812;42.662;23.352;2022-09-09T07:26:18;95138.84;;;23.88;47.94
41062;BME280;26812;42.662;23.352;2022-09-09T07:28:47;95114.75;;;24.17;47.05
41062;BME280;26812;42.662;23.352;2022-09-09T07:31:18;95133.28;;;24.97;45.99
41062;BME280;26812;42.662;23.352;2022-09-09T07:33:44;95131.00;;;25.44;42.67
41062;BME280;26812;42.662;23.352;2022-09-09T07:36:13;95121.09;;;25.91;41.83
41062;BME280;26812;42.662;23.352;2022-09-09T07:38:41;95113.63;;;26.25;41.12
41062;BME280;26812;42.662;23.352;2022-09-09T07:41:09;95110.34;;;26.38;41.83
41062;BME280;26812;42.662;23.352;2022-09-09T07:43:38;95129.63;;;26.07;40.76
41062;BME280;26812;42.662;23.352;2022-09-09T07:46:05;95121.19;;;25.84;40.92
41062;BME280;26812;42.662;23.352;2022-09-09T07:48:31;95121.25;;;25.77;42.11
41062;BME280;26812;42.662;23.352;2022-09-09T07:51:27;95130.53;;;25.93;42.56
41062;BME280;26812;42.662;23.352;2022-09-09T07:54:01;95129.31;;;26.32;41.15
41062;BME280;26812;42.662;23.352;2022-09-09T07:56:30;95126.00;;;26.78;39.29
41062;BME280;26812;42.662;23.352;2022-09-09T07:58:57;95121.78;;;26.97;39.04
41062;BME280;26812;42.662;23.352;2022-09-09T08:01:50;95105.97;;;26.98;39.42
41062;BME280;26812;42.662;23.352;2022-09-09T08:04:20;95125.34;;;26.98;40.55
41062;BME280;26812;42.662;23.352;2022-09-09T08:06:54;95120.25;;;26.92;40.11
41062;BME280;26812;42.662;23.352;2022-09-09T08:09:20;95129.50;;;26.82;39.37
41062;BME280;26812;42.662;23.352;2022-09-09T08:11:46;95116.75;;;26.88;38.73
41062;BME280;26812;42.662;23.352;2022-09-09T08:14:12;95123.00;;;26.92;39.14
41062;BME280;26812;42.662;23.352;2022-09-09T08:16:44;95113.00;;;26.75;37.77
41062;BME280;26812;42.662;23.352;2022-09-09T08:19:10;95117.97;;;26.57;38.30
41062;BME280;26812;42.662;23.352;2022-09-09T08:21:38;95116.38;;;26.59;38.60
41062;BME280;26812;42.662;23.352;2022-09-09T08:24:06;95118.44;;;26.82;38.72
41062;BME280;26812;42.662;23.352;2022-09-09T08:26:35;95114.31;;;26.67;38.83
41062;BME280;26812;42.662;23.352;2022-09-09T08:29:02;95118.31;;;26.63;38.46
41062;BME280;26812;42.662;23.352;2022-09-09T08:31:30;95121.31;;;26.75;39.04
41062;BME280;26812;42.662;23.352;2022-09-09T08:33:58;95090.47;;;25.82;39.32
41062;BME280;26812;42.662;23.352;2022-09-09T08:36:27;95117.75;;;26.10;40.13
41062;BME280;26812;42.662;23.352;2022-09-09T08:38:54;95122.31;;;26.24;40.21
41062;BME280;26812;42.662;23.352;2022-09-09T08:46:57;95115.00;;;25.73;40.32
41062;BME280;26812;42.662;23.352;2022-09-09T08:50:33;95109.47;;;25.73;40.32
41062;BME280;26812;42.662;23.352;2022-09-09T08:58:12;95105.00;;;25.86;40.80
41062;BME280;26812;42.662;23.352;2022-09-09T09:03:33;95112.47;;;25.41;41.76
41062;BME280;26812;42.662;23.352;2022-09-09T09:08:48;95095.84;;;25.03;42.91
41062;BME280;26812;42.662;23.352;2022-09-09T09:11:16;95104.03;;;25.17;42.34
41062;BME280;26812;42.662;23.352;2022-09-09T09:13:52;95110.69;;;25.20;42.65
41062;BME280;26812;42.662;23.352;2022-09-09T09:16:31;95102.81;;;25.63;41.67
41062;BME280;26812;42.662;23.352;2022-09-09T09:18:59;95103.47;;;25.81;42.23
41062;BME280;26812;42.662;23.352;2022-09-09T09:21:41;95102.00;;;26.07;42.54
41062;BME280;26812;42.662;23.352;2022-09-09T09:24:34;95103.94;;;26.10;40.96
41062;BME280;26812;42.662;23.352;2022-09-09T09:27:16;95096.22;;;26.28;41.37
41062;BME280;26812;42.662;23.352;2022-09-09T09:29:44;95097.38;;;26.35;40.66
41062;BME280;26812;42.662;23.352;2022-09-09T09:32:14;95081.53;;;26.39;40.53
41062;BME280;26812;42.662;23.352;2022-09-09T09:34:41;95101.75;;;26.28;41.83
41062;BME280;26812;42.662;23.352;2022-09-09T09:37:16;95093.91;;;26.23;42.05
41062;BME280;26812;42.662;23.352;2022-09-09T09:39:45;95101.50;;;26.16;41.13
41062;BME280;26812;42.662;23.352;2022-09-09T09:42:16;95081.97;;;25.99;41.39
41062;BME280;26812;42.662;23.352;2022-09-09T09:44:42;95064.38;;;26.20;40.43
41062;BME280;26812;42.662;23.352;2022-09-09T09:49:38;95072.56;;;26.58;41.25
41062;BME280;26812;42.662;23.352;2022-09-09T09:52:06;95082.09;;;26.84;40.40
41062;BME280;26812;42.662;23.352;2022-09-09T09:54:42;95075.28;;;26.88;39.67
41062;BME280;26812;42.662;23.352;2022-09-09T09:57:13;95057.88;;;26.91;39.64
41062;BME280;26812;42.662;23.352;2022-09-09T09:59:40;95072.66;;;27.08;39.95
41062;BME280;26812;42.662;23.352;2022-09-09T10:02:16;95067.63;;;27.03;39.14
41062;BME280;26812;42.662;23.352;2022-09-09T10:04:42;95060.81;;;26.81;39.55
41062;BME280;26812;42.662;23.352;2022-09-09T10:07:19;95059.41;;;26.96;40.02
41062;BME280;26812;42.662;23.352;2022-09-09T10:09:45;95067.56;;;27.07;39.71
41062;BME280;26812;42.662;23.352;2022-09-09T10:20:15;95075.16;;;26.72;40.45
41062;BME280;26812;42.662;23.352;2022-09-09T10:22:47;95078.44;;;26.64;42.15
41062;BME280;26812;42.662;23.352;2022-09-09T10:36:04;95080.69;;;26.72;41.24
41062;BME280;26812;42.662;23.352;2022-09-09T10:38:45;95059.81;;;26.41;41.96
41062;BME280;26812;42.662;23.352;2022-09-09T10:42:15;95082.28;;;26.43;42.07
41062;BME280;26812;42.662;23.352;2022-09-09T10:44:17;95086.69;;;26.37;42.81
41062;BME280;26812;42.662;23.352;2022-09-09T10:49:52;95094.78;;;26.17;43.09
41062;BME280;26812;42.662;23.352;2022-09-09T10:55:02;95080.38;;;26.33;42.91
41062;BME280;26812;42.662;23.352;2022-09-09T11:00:17;95083.00;;;26.47;42.72
41062;BME280;26812;42.662;23.352;2022-09-09T11:02:48;95079.50;;;26.43;43.07
41062;BME280;26812;42.662;23.352;2022-09-09T11:05:21;95071.75;;;26.34;42.23
41062;BME280;26812;42.662;23.352;2022-09-09T11:08:02;95075.28;;;26.35;42.07
41062;BME280;26812;42.662;23.352;2022-09-09T11:21:52;95083.56;;;26.31;43.05
41062;BME280;26812;42.662;23.352;2022-09-09T11:26:54;95067.72;;;26.39;42.54
41062;BME280;26812;42.662;23.352;2022-09-09T11:32:27;95059.72;;;26.48;42.51
41062;BME280;26812;42.662;23.352;2022-09-09T11:38:27;95044.91;;;26.61;42.83
41062;BME280;26812;42.662;23.352;2022-09-09T11:40:56;95036.59;;;26.65;42.81
41062;BME280;26812;42.662;23.352;2022-09-09T11:43:28;95033.53;;;26.56;42.20
41062;BME280;26812;42.662;23.352;2022-09-09T11:46:02;95030.72;;;26.59;41.73
41062;BME280;26812;42.662;23.352;2022-09-09T11:48:32;95021.50;;;26.43;42.22
41062;BME280;26812;42.662;23.352;2022-09-09T11:51:10;95005.38;;;26.07;43.37
41062;BME280;26812;42.662;23.352;2022-09-09T11:54:25;94992.72;;;26.10;43.80
41062;BME280;26812;42.662;23.352;2022-09-09T11:56:49;94984.16;;;26.35;43.48
41062;BME280;26812;42.662;23.352;2022-09-09T11:59:21;94990.16;;;26.53;43.33
41062;BME280;26812;42.662;23.352;2022-09-09T12:04:38;94986.09;;;26.61;42.94
41062;BME280;26812;42.662;23.352;2022-09-09T12:07:24;95010.16;;;26.87;43.08
41062;BME280;26812;42.662;23.352;2022-09-09T12:09:52;95009.19;;;27.01;42.37
41062;BME280;26812;42.662;23.352;2022-09-09T12:12:24;95002.84;;;27.24;42.46
41062;BME280;26812;42.662;23.352;2022-09-09T12:17:28;94990.22;;;27.46;42.08
41062;BME280;26812;42.662;23.352;2022-09-09T12:20:21;94994.03;;;27.33;42.19
41062;BME280;26812;42.662;23.352;2022-09-09T12:28:19;94985.31;;;27.54;41.31
41062;BME280;26812;42.662;23.352;2022-09-09T12:30:58;94991.13;;;27.40;41.58
41062;BME280;26812;42.662;23.352;2022-09-09T12:33:36;94986.00;;;26.91;42.08
41062;BME280;26812;42.662;23.352;2022-09-09T12:36:03;94968.97;;;27.20;42.00
41062;BME280;26812;42.662;23.352;2022-09-09T12:38:40;94957.09;;;27.43;41.43
41062;BME280;26812;42.662;23.352;2022-09-09T12:41:18;94970.09;;;27.22;41.55
41062;BME280;26812;42.662;23.352;2022-09-09T12:43:44;94962.81;;;26.85;42.45
41062;BME280;26812;42.662;23.352;2022-09-09T12:46:35;94964.59;;;26.99;42.53
41062;BME280;26812;42.662;23.352;2022-09-09T12:49:02;94959.31;;;26.81;43.18
41062;BME280;26812;42.662;23.352;2022-09-09T12:51:30;94963.28;;;27.07;42.68
41062;BME280;26812;42.662;23.352;2022-09-09T12:53:58;94958.03;;;27.13;43.08
41062;BME280;26812;42.662;23.352;2022-09-09T12:56:26;94965.84;;;26.95;42.69
41062;BME280;26812;42.662;23.352;2022-09-09T12:58:53;94954.41;;;26.69;43.45
41062;BME280;26812;42.662;23.352;2022-09-09T13:01:27;94949.75;;;26.39;44.04
41062;BME280;26812;42.662;23.352;2022-09-09T13:03:53;94952.00;;;26.17;45.49
41062;BME280;26812;42.662;23.352;2022-09-09T13:06:24;94924.47;;;26.41;44.41
41062;BME280;26812;42.662;23.352;2022-09-09T13:08:52;94932.66;;;26.71;44.32
41062;BME280;26812;42.662;23.352;2022-09-09T13:11:25;94939.97;;;26.81;44.08
41062;BME280;26812;42.662;23.352;2022-09-09T13:13:56;94926.91;;;27.09;43.27
41062;BME280;26812;42.662;23.352;2022-09-09T13:18:48;94913.25;;;26.75;43.50
41062;BME280;26812;42.662;23.352;2022-09-09T13:21:14;94923.00;;;27.06;43.17
41062;BME280;26812;42.662;23.352;2022-09-09T13:23:40;94931.13;;;26.90;43.89
41062;BME280;26812;42.662;23.352;2022-09-09T13:26:20;94913.59;;;26.53;44.64
41062;BME280;26812;42.662;23.352;2022-09-09T13:28:49;94923.63;;;26.90;44.97
41062;BME280;26812;42.662;23.352;2022-09-09T13:31:32;94923.06;;;27.22;44.53
41062;BME280;26812;42.662;23.352;2022-09-09T13:33:58;94926.38;;;27.37;44.21
41062;BME280;26812;42.662;23.352;2022-09-09T13:36:32;94914.03;;;27.42;44.43
41062;BME280;26812;42.662;23.352;2022-09-09T13:38:59;94911.75;;;27.37;43.94
41062;BME280;26812;42.662;23.352;2022-09-09T13:41:30;94902.81;;;27.49;43.79
41062;BME280;26812;42.662;23.352;2022-09-09T13:43:57;94912.16;;;27.55;43.58
41062;BME280;26812;42.662;23.352;2022-09-09T13:49:00;94894.72;;;27.18;43.77
41062;BME280;26812;42.662;23.352;2022-09-09T13:51:37;94894.75;;;26.95;44.20
41062;BME280;26812;42.662;23.352;2022-09-09T13:54:06;94890.44;;;26.71;45.08
41062;BME280;26812;42.662;23.352;2022-09-09T13:56:34;94890.50;;;26.67;45.11
41062;BME280;26812;42.662;23.352;2022-09-09T13:59:12;94899.25;;;27.09;44.68
41062;BME280;26812;42.662;23.352;2022-09-09T14:01:38;94889.88;;;27.03;44.47
41062;BME280;26812;42.662;23.352;2022-09-09T14:04:04;94897.13;;;26.93;44.33
41062;BME280;26812;42.662;23.352;2022-09-09T14:06:31;94892.22;;;26.81;44.67
41062;BME280;26812;42.662;23.352;2022-09-09T14:08:57;94883.88;;;27.08;44.48
41062;BME280;26812;42.662;23.352;2022-09-09T14:11:23;94898.50;;;27.28;44.07
41062;BME280;26812;42.662;23.352;2022-09-09T14:13:48;94896.00;;;27.34;43.93
41062;BME280;26812;42.662;23.352;2022-09-09T14:16:17;94890.81;;;26.92;44.07
41062;BME280;26812;42.662;23.352;2022-09-09T14:18:43;94884.56;;;26.88;43.93
41062;BME280;26812;42.662;23.352;2022-09-09T14:21:09;94885.56;;;26.78;44.82
41062;BME280;26812;42.662;23.352;2022-09-09T14:23:35;94874.50;;;26.78;44.83
41062;BME280;26812;42.662;23.352;2022-09-09T14:26:00;94876.13;;;26.76;44.73
41062;BME280;26812;42.662;23.352;2022-09-09T14:28:26;94863.13;;;26.96;43.91
41062;BME280;26812;42.662;23.352;2022-09-09T14:30:53;94874.50;;;26.78;44.17
41062;BME280;26812;42.662;23.352;2022-09-09T14:33:19;94877.63;;;26.80;44.06
41062;BME280;26812;42.662;23.352;2022-09-09T14:35:44;94882.94;;;26.91;43.81
41062;BME280;26812;42.662;23.352;2022-09-09T14:38:10;94886.84;;;27.17;43.75
41062;BME280;26812;42.662;23.352;2022-09-09T14:40:36;94869.72;;;27.26;43.89
41062;BME280;26812;42.662;23.352;2022-09-09T14:43:03;94880.34;;;27.27;43.71
41062;BME280;26812;42.662;23.352;2022-09-09T14:45:29;94870.34;;;27.33;43.33
41062;BME280;26812;42.662;23.352;2022-09-09T14:47:54;94848.69;;;27.08;42.77